Time;durP1;ratioP1;P1;durP2;ratioP2;P2;SDS_P1;SDS_P2;PMS_P1;PMS_P2;Temp;Humidity;BMP_temperature;BMP_pressure;BME280_temperature;BME280_humidity;BME280_pressure;Samples;Min_cycle;Max_cycle;Signal;HPM_P1;HPM_P2
2023/08/15 00:00:22;;;;;;;11.98;5.18;;;;;;;19.60;nan;101160.84;5027562;28;20116;-75
2023/08/15 00:02:47;;;;;;;8.43;5.20;;;;;;;19.61;nan;101162.53;5023312;28;20025;-75
2023/08/15 00:05:13;;;;;;;9.73;5.47;;;;;;;19.51;nan;101161.34;5029676;28;20033;-75
2023/08/15 00:07:38;;;;;;;11.35;5.18;;;;;;;19.45;nan;101154.59;5023280;28;20030;-74
2023/08/15 00:10:04;;;;;;;9.95;5.00;;;;;;;19.39;nan;101147.88;5030550;28;20022;-75
2023/08/15 00:12:29;;;;;;;10.77;5.43;;;;;;;19.34;nan;101144.63;5021911;28;20108;-75
2023/08/15 00:14:54;;;;;;;9.68;4.63;;;;;;;19.29;nan;101141.41;5014798;28;20030;-75
2023/08/15 00:17:20;;;;;;;7.78;5.28;;;;;;;19.22;nan;101134.72;5027583;28;20026;-75
2023/08/15 00:19:45;;;;;;;8.88;4.95;;;;;;;19.14;nan;101142.22;5023463;28;20025;-75
2023/08/15 00:22:10;;;;;;;11.02;5.95;;;;;;;19.10;nan;101146.00;5027332;28;20550;-75
2023/08/15 00:24:36;;;;;;;15.18;5.00;;;;;;;19.08;nan;101142.56;5022236;28;20036;-75
2023/08/15 00:27:01;;;;;;;7.53;4.93;;;;;;;19.05;nan;101153.28;5027972;28;20429;-75
2023/08/15 00:29:26;;;;;;;8.02;5.32;;;;;;;19.03;nan;101160.44;5016709;28;20040;-75
2023/08/15 00:31:52;;;;;;;11.55;5.05;;;;;;;18.95;nan;101148.50;5026432;28;20029;-75
2023/08/15 00:34:17;;;;;;;9.15;5.50;;;;;;;18.93;nan;101158.31;5021062;28;20069;-75
2023/08/15 00:36:42;;;;;;;9.43;4.93;;;;;;;18.98;nan;101158.06;5020557;28;20028;-74
2023/08/15 00:39:08;;;;;;;10.23;5.15;;;;;;;18.88;nan;101170.91;5019038;28;20052;-74
2023/08/15 00:41:33;;;;;;;12.40;5.05;;;;;;;18.81;nan;101166.88;5022309;28;20436;-74
2023/08/15 00:43:58;;;;;;;8.55;4.80;;;;;;;18.58;nan;101148.72;5020044;28;20033;-74
2023/08/15 00:46:27;;;;;;;6.72;4.53;;;;;;;18.65;nan;101164.16;5017797;28;20030;-74
2023/08/15 00:48:54;;;;;;;11.27;5.15;;;;;;;18.65;nan;101180.00;5023523;28;20091;-74
2023/08/15 00:51:19;;;;;;;11.68;5.55;;;;;;;18.59;nan;101188.22;5014833;28;20068;-75
2023/08/15 00:53:45;;;;;;;12.13;5.00;;;;;;;18.57;nan;101183.97;5024388;28;20037;-75
2023/08/15 00:56:11;;;;;;;9.25;4.72;;;;;;;18.49;nan;101181.72;5024707;28;20100;-75
2023/08/15 00:58:36;;;;;;;9.48;5.03;;;;;;;18.49;nan;101179.09;5024050;28;20072;-75
2023/08/15 01:01:02;;;;;;;9.95;4.93;;;;;;;18.44;nan;101178.44;5025400;28;20365;-75
2023/08/15 01:03:28;;;;;;;7.45;4.30;;;;;;;18.47;nan;101173.00;5022642;28;20033;-75
2023/08/15 01:05:54;;;;;;;10.40;4.78;;;;;;;18.41;nan;101182.13;5022623;28;20026;-75
2023/08/15 01:08:20;;;;;;;9.27;4.60;;;;;;;18.36;nan;101170.06;5024316;28;20033;-75
2023/08/15 01:10:45;;;;;;;7.65;4.30;;;;;;;18.33;nan;101172.88;5022894;28;20039;-75
2023/08/15 01:13:15;;;;;;;11.00;4.20;;;;;;;18.25;nan;101160.06;5022132;28;20025;-75
2023/08/15 01:15:48;;;;;;;10.95;4.50;;;;;;;18.29;nan;101163.41;5019483;28;20038;-74
2023/08/15 01:18:13;;;;;;;;;;;;;;;18.36;nan;101164.81;5023103;28;20504;-75
2023/08/15 01:20:39;;;;;;;11.10;4.10;;;;;;;18.30;nan;101163.31;5024450;28;19920;-75
2023/08/15 01:23:07;;;;;;;7.70;4.30;;;;;;;18.34;nan;101159.59;5022048;28;20057;-75
2023/08/15 01:25:41;;;;;;;7.88;4.30;;;;;;;18.21;nan;101154.09;5023721;28;20145;-75
2023/08/15 01:28:14;;;;;;;8.15;4.30;;;;;;;18.19;nan;101163.00;5022302;28;20034;-75
2023/08/15 01:30:46;;;;;;;7.50;4.10;;;;;;;18.14;nan;101160.59;5024930;28;20025;-75
2023/08/15 01:33:38;;;;;;;11.90;4.53;;;;;;;18.02;nan;101161.22;5020784;28;20478;-74
2023/08/15 01:36:19;;;;;;;11.18;4.25;;;;;;;18.08;nan;101192.56;5024705;28;20033;-74
2023/08/15 01:38:47;;;;;;;8.65;3.95;;;;;;;18.10;nan;101197.78;5023656;28;20029;-75
2023/08/15 01:41:18;;;;;;;11.68;3.95;;;;;;;18.10;nan;101198.63;5022918;28;20056;-75
2023/08/15 01:43:44;;;;;;;9.50;4.10;;;;;;;18.05;nan;101198.00;5023498;28;20029;-74
2023/08/15 01:46:10;;;;;;;11.60;4.50;;;;;;;18.07;nan;101201.41;5018154;28;20026;-74
2023/08/15 01:48:40;;;;;;;10.95;4.20;;;;;;;17.99;nan;101203.59;5023695;28;20032;-74
2023/08/15 01:51:06;;;;;;;12.25;4.07;;;;;;;18.08;nan;101215.44;5021519;28;20029;-75
2023/08/15 01:53:31;;;;;;;6.28;3.53;;;;;;;18.09;nan;101217.19;5018034;28;20029;-75
2023/08/15 01:55:56;;;;;;;9.75;3.75;;;;;;;18.09;nan;101217.19;5019949;28;20030;-75
2023/08/15 01:58:22;;;;;;;9.20;3.80;;;;;;;18.08;nan;101224.22;5015850;28;20496;-75
2023/08/15 02:00:48;;;;;;;8.57;3.35;;;;;;;18.09;nan;101236.50;5021186;28;20529;-75
2023/08/15 02:03:13;;;;;;;14.93;4.38;;;;;;;18.12;nan;101224.94;5023461;28;20045;-75
2023/08/15 02:05:38;;;;;;;10.20;3.95;;;;;;;18.12;nan;101224.94;5021480;28;20424;-74
2023/08/15 02:08:04;;;;;;;11.50;3.72;;;;;;;18.11;nan;101218.78;5022636;28;20116;-75
2023/08/15 02:10:29;;;;;;;6.20;3.40;;;;;;;18.12;nan;101235.50;5022737;28;20136;-75
2023/08/15 02:12:55;;;;;;;7.28;3.58;;;;;;;18.06;nan;101225.25;5021267;28;20107;-75
2023/08/15 02:15:20;;;;;;;9.27;3.95;;;;;;;17.97;nan;101223.88;5017030;28;20052;-75
2023/08/15 02:17:45;;;;;;;12.13;3.97;;;;;;;18.02;nan;101240.38;5022722;28;20040;-75
2023/08/15 02:20:11;;;;;;;11.38;4.07;;;;;;;17.94;nan;101253.91;5022268;28;20473;-75
2023/08/15 02:22:36;;;;;;;8.52;3.78;;;;;;;17.98;nan;101265.16;5023801;28;20018;-75
2023/08/15 02:25:02;;;;;;;9.07;3.50;;;;;;;18.00;nan;101264.16;5020662;28;20513;-75
2023/08/15 02:27:27;;;;;;;6.90;3.35;;;;;;;17.96;nan;101254.69;5026061;28;20525;-75
2023/08/15 02:29:52;;;;;;;6.93;3.58;;;;;;;18.01;nan;101262.38;5019483;28;20026;-75
2023/08/15 02:32:18;;;;;;;14.13;4.03;;;;;;;17.94;nan;101259.19;5026350;28;20034;-75
2023/08/15 02:34:44;;;;;;;7.72;3.72;;;;;;;17.87;nan;101265.69;5020045;28;20042;-74
2023/08/15 02:37:09;;;;;;;9.77;3.60;;;;;;;17.82;nan;101258.91;5019277;28;20038;-74
2023/08/15 02:39:34;;;;;;;9.65;3.83;;;;;;;17.75;nan;101264.41;5028097;28;20029;-75
2023/08/15 02:42:00;;;;;;;8.85;3.72;;;;;;;17.70;nan;101247.13;5020189;28;20033;-74
2023/08/15 02:44:25;;;;;;;14.15;4.28;;;;;;;17.62;nan;101241.34;5026839;28;20087;-74
2023/08/15 02:46:50;;;;;;;10.68;4.05;;;;;;;17.57;nan;101244.22;5020339;28;20492;-74
2023/08/15 02:49:15;;;;;;;9.57;4.07;;;;;;;17.51;nan;101245.34;5026355;28;20048;-74
2023/08/15 02:51:41;;;;;;;8.82;4.32;;;;;;;17.46;nan;101249.97;5012133;28;20018;-74
2023/08/15 02:54:06;;;;;;;9.98;4.10;;;;;;;17.40;nan;101252.03;5022221;28;20037;-75
2023/08/15 02:56:31;;;;;;;8.80;3.83;;;;;;;17.43;nan;101254.50;5022407;28;20025;-75
2023/08/15 02:58:57;;;;;;;10.50;4.22;;;;;;;17.35;nan;101243.47;5012036;28;20384;-75
2023/08/15 03:01:23;;;;;;;14.70;4.47;;;;;;;17.35;nan;101248.75;5016910;28;20032;-75
2023/08/15 03:03:48;;;;;;;11.88;4.20;;;;;;;17.37;nan;101257.44;5019173;28;20018;-75
2023/08/15 03:06:14;;;;;;;11.43;4.38;;;;;;;17.32;nan;101249.72;5015267;28;20489;-75
2023/08/15 03:08:39;;;;;;;10.13;3.72;;;;;;;17.26;nan;101247.38;5018239;28;20102;-74
2023/08/15 03:11:05;;;;;;;12.25;4.53;;;;;;;17.28;nan;101250.78;5016092;28;20057;-75
2023/08/15 03:13:30;;;;;;;9.77;4.03;;;;;;;17.29;nan;101240.19;5013208;28;20034;-75
2023/08/15 03:15:57;;;;;;;10.00;4.15;;;;;;;17.24;nan;101241.34;5017668;28;20418;-74
2023/08/15 03:18:22;;;;;;;10.93;4.13;;;;;;;17.19;nan;101238.03;5016540;28;20025;-75
2023/08/15 03:20:58;;;;;;;8.10;4.55;;;;;;;17.12;nan;101250.63;5023861;28;20465;-74
2023/08/15 03:23:24;;;;;;;11.38;4.30;;;;;;;17.07;nan;101245.56;5016973;28;20033;-74
2023/08/15 03:25:59;;;;;;;7.88;4.20;;;;;;;16.99;nan;101245.03;5022680;28;20075;-74
2023/08/15 03:28:25;;;;;;;12.45;4.60;;;;;;;16.88;nan;101233.28;5024808;28;20168;-74
2023/08/15 03:30:51;;;;;;;12.30;4.53;;;;;;;16.82;nan;101237.88;5018419;28;20105;-75
2023/08/15 03:33:17;;;;;;;10.23;4.43;;;;;;;16.78;nan;101238.09;5029214;28;20511;-74
2023/08/15 03:35:48;;;;;;;11.07;5.00;;;;;;;16.75;nan;101254.88;5023379;28;20065;-74
2023/08/15 03:38:16;;;;;;;9.07;4.40;;;;;;;16.76;nan;101260.97;5030126;28;20422;-75
2023/08/15 03:40:45;;;;;;;10.20;4.68;;;;;;;16.75;nan;101262.75;5022876;28;20021;-74
2023/08/15 03:43:12;;;;;;;12.75;5.47;;;;;;;16.78;nan;101261.78;5029488;28;20029;-75
2023/08/15 03:45:38;;;;;;;12.18;5.25;;;;;;;16.69;nan;101259.50;5024127;28;20461;-75
2023/08/15 03:48:05;;;;;;;12.18;4.90;;;;;;;16.70;nan;101264.69;5027612;28;20116;-75
2023/08/15 03:50:34;;;;;;;13.45;5.30;;;;;;;16.73;nan;101279.50;5025393;28;20760;-75
2023/08/15 03:53:00;;;;;;;9.95;4.70;;;;;;;16.72;nan;101273.38;5021743;28;20541;-74
2023/08/15 03:55:27;;;;;;;16.40;5.53;;;;;;;16.72;nan;101280.44;5027245;28;20148;-74
2023/08/15 03:57:52;;;;;;;11.18;5.00;;;;;;;16.72;nan;101269.91;5025920;28;20048;-75
2023/08/15 04:00:21;;;;;;;13.73;4.97;;;;;;;16.74;nan;101281.19;5024894;28;20104;-75
2023/08/15 04:02:46;;;;;;;12.20;5.35;;;;;;;16.61;nan;101260.69;5017224;28;20477;-74
2023/08/15 04:05:12;;;;;;;12.35;5.65;;;;;;;16.61;nan;101276.47;5020683;28;20030;-75
2023/08/15 04:07:38;;;;;;;10.48;5.03;;;;;;;16.56;nan;101274.94;5017802;28;20096;-74
2023/08/15 04:10:04;;;;;;;9.98;5.57;;;;;;;16.50;nan;101273.41;5015412;28;20077;-75
2023/08/15 04:12:29;;;;;;;9.07;5.30;;;;;;;16.47;nan;101270.06;5017748;28;20453;-75
2023/08/15 04:14:55;;;;;;;10.90;5.45;;;;;;;16.42;nan;101264.16;5021830;28;20093;-74
2023/08/15 04:17:20;;;;;;;11.48;5.30;;;;;;;16.42;nan;101257.09;5024406;28;20025;-74
2023/08/15 04:19:46;;;;;;;15.55;6.47;;;;;;;16.29;nan;101245.38;5026081;28;20017;-75
2023/08/15 04:22:11;;;;;;;11.32;5.53;;;;;;;16.31;nan;101264.56;5023373;28;20034;-75
2023/08/15 04:24:36;;;;;;;11.82;5.22;;;;;;;16.29;nan;101261.16;5025965;28;20128;-75
2023/08/15 04:27:02;;;;;;;15.65;5.55;;;;;;;16.32;nan;101255.78;5024621;28;20115;-74
2023/08/15 04:29:27;;;;;;;9.18;5.38;;;;;;;16.23;nan;101271.94;5024466;28;20167;-75
2023/08/15 04:31:52;;;;;;;12.45;5.32;;;;;;;16.22;nan;101270.19;5026778;28;20087;-75
2023/08/15 04:34:18;;;;;;;12.52;5.28;;;;;;;16.17;nan;101270.38;5022979;28;20054;-75
2023/08/15 04:36:46;;;;;;;8.65;4.90;;;;;;;16.18;nan;101279.13;5027762;28;20025;-75
2023/08/15 04:39:12;;;;;;;13.85;5.75;;;;;;;16.23;nan;101278.03;5018776;28;20029;-75
2023/08/15 04:41:37;;;;;;;11.90;5.90;;;;;;;16.18;nan;101279.13;5029981;28;20389;-75
2023/08/15 04:44:03;;;;;;;10.32;5.60;;;;;;;16.18;nan;101284.38;5021409;28;20041;-74
2023/08/15 04:46:28;;;;;;;13.73;5.70;;;;;;;16.20;nan;101277.31;5029473;28;20030;-75
2023/08/15 04:48:53;;;;;;;10.30;5.90;;;;;;;16.20;nan;101277.31;5022031;28;20030;-75
2023/08/15 04:51:19;;;;;;;12.68;5.50;;;;;;;16.12;nan;101273.22;5027537;28;20029;-74
2023/08/15 04:53:44;;;;;;;12.25;5.57;;;;;;;16.23;nan;101299.09;5023199;28;20461;-74
2023/08/15 04:56:11;;;;;;;7.28;5.05;;;;;;;16.21;nan;101303.53;5026280;28;20049;-75
2023/08/15 04:58:37;;;;;;;10.10;6.03;;;;;;;16.24;nan;101297.31;5024643;28;20029;-75
2023/08/15 05:01:03;;;;;;;13.27;5.70;;;;;;;16.36;nan;101320.50;5023783;28;20037;-74
2023/08/15 05:03:28;;;;;;;13.20;5.45;;;;;;;16.40;nan;101327.34;5024932;28;20458;-75
2023/08/15 05:05:53;;;;;;;12.70;5.75;;;;;;;16.42;nan;101319.41;5021654;28;20559;-75
2023/08/15 05:08:18;;;;;;;11.40;5.70;;;;;;;16.50;nan;101331.31;5017683;28;20025;-75
2023/08/15 05:10:44;;;;;;;14.32;5.78;;;;;;;16.49;nan;101339.28;5027825;28;20029;-75
2023/08/15 05:13:09;;;;;;;12.60;5.80;;;;;;;16.45;nan;101337.66;5021322;28;20116;-75
2023/08/15 05:15:34;;;;;;;12.40;6.00;;;;;;;16.43;nan;101347.44;5026159;28;20022;-75
2023/08/15 05:18:00;;;;;;;13.40;5.90;;;;;;;16.46;nan;101356.06;5020678;28;20030;-75
2023/08/15 05:20:25;;;;;;;13.77;6.18;;;;;;;16.50;nan;101352.38;5024174;28;20360;-75
2023/08/15 05:22:51;;;;;;;11.25;5.82;;;;;;;16.54;nan;101361.00;5025327;28;20051;-75
2023/08/15 05:25:17;;;;;;;14.52;5.75;;;;;;;16.62;nan;101364.19;5019354;28;20038;-74
2023/08/15 05:27:42;;;;;;;11.70;6.13;;;;;;;16.65;nan;101369.34;5018508;28;20022;-75
2023/08/15 05:30:08;;;;;;;11.82;6.10;;;;;;;16.71;nan;101370.84;5023197;28;20108;-75
2023/08/15 05:32:33;;;;;;;13.57;6.50;;;;;;;16.67;nan;101356.09;5020798;28;20034;-75
2023/08/15 05:34:59;;;;;;;11.18;5.90;;;;;;;16.78;nan;101365.31;5017339;28;20071;-74
2023/08/15 05:37:24;;;;;;;10.50;5.28;;;;;;;16.86;nan;101367.63;5022377;28;20535;-74
2023/08/15 05:39:49;;;;;;;12.38;6.20;;;;;;;16.92;nan;101362.09;5023737;28;20108;-74
2023/08/15 05:42:17;;;;;;;10.90;6.25;;;;;;;17.00;nan;101359.13;5023429;28;20026;-74
2023/08/15 05:44:45;;;;;;;11.40;6.47;;;;;;;17.02;nan;101345.00;5007739;28;20042;-75
2023/08/15 05:47:10;;;;;;;13.57;6.35;;;;;;;17.00;nan;101330.16;5019647;28;20066;-74
2023/08/15 05:49:36;;;;;;;14.25;6.80;;;;;;;17.22;nan;101367.00;5023006;28;20057;-74
2023/08/15 05:52:02;;;;;;;12.07;6.30;;;;;;;17.17;nan;101359.31;5027370;28;20057;-74
2023/08/15 05:54:28;;;;;;;14.63;6.97;;;;;;;17.26;nan;101365.94;5019848;28;20418;-75
2023/08/15 05:56:54;;;;;;;14.35;6.78;;;;;;;17.33;nan;101372.69;5029065;28;20060;-74
2023/08/15 05:59:19;;;;;;;12.32;6.88;;;;;;;17.37;nan;101379.53;5020097;28;20417;-74
2023/08/15 06:01:45;;;;;;;17.08;7.20;;;;;;;17.47;nan;101390.53;5019927;28;20057;-75
2023/08/15 06:04:10;;;;;;;14.80;7.18;;;;;;;17.49;nan;101383.38;5012862;28;20030;-74
2023/08/15 06:06:36;;;;;;;15.55;7.47;;;;;;;17.59;nan;101381.22;5015691;28;20036;-74
2023/08/15 06:09:01;;;;;;;13.30;6.90;;;;;;;17.67;nan;101387.00;5023263;28;20016;-74
2023/08/15 06:11:27;;;;;;;12.18;7.07;;;;;;;17.73;nan;101389.38;5024331;28;20080;-75
2023/08/15 06:13:52;;;;;;;14.63;7.10;;;;;;;17.79;nan;101397.06;5020592;28;20034;-74
2023/08/15 06:16:17;;;;;;;14.77;7.40;;;;;;;17.80;nan;101404.03;5026412;28;20040;-74
2023/08/15 06:18:43;;;;;;;16.70;7.13;;;;;;;17.82;nan;101404.84;5020339;28;20021;-74
2023/08/15 06:21:08;;;;;;;12.32;6.75;;;;;;;17.86;nan;101409.03;5026786;28;20074;-74
2023/08/15 06:23:35;;;;;;;12.23;7.43;;;;;;;17.88;nan;101403.69;5020106;28;20485;-74
2023/08/15 06:26:00;;;;;;;13.85;7.50;;;;;;;17.88;nan;101409.81;5022955;28;20473;-75
2023/08/15 06:28:26;;;;;;;15.90;7.18;;;;;;;17.90;nan;101413.25;5020199;28;20088;-75
2023/08/15 06:30:51;;;;;;;14.20;7.03;;;;;;;17.96;nan;101415.59;5025923;28;20017;-74
2023/08/15 06:33:17;;;;;;;15.27;7.22;;;;;;;17.97;nan;101416.47;5021441;28;20103;-74
2023/08/15 06:35:42;;;;;;;13.20;6.32;;;;;;;17.97;nan;101416.47;5023686;28;20466;-74
2023/08/15 06:38:07;;;;;;;14.48;6.65;;;;;;;18.05;nan;101411.69;5023343;28;20420;-74
2023/08/15 06:40:33;;;;;;;20.10;6.60;;;;;;;18.08;nan;101408.91;5021881;28;20485;-74
2023/08/15 06:42:58;;;;;;;15.00;7.07;;;;;;;18.14;nan;101407.78;5017133;28;20101;-74
2023/08/15 06:45:23;;;;;;;13.23;7.03;;;;;;;18.23;nan;101415.25;5018159;28;20105;-74
2023/08/15 06:47:51;;;;;;;12.43;6.88;;;;;;;18.28;nan;101412.41;5023293;28;20029;-75
2023/08/15 06:50:17;;;;;;;23.65;8.25;;;;;;;18.35;nan;101421.78;5021745;28;20078;-74
2023/08/15 06:52:43;;;;;;;19.63;7.85;;;;;;;18.39;nan;101415.41;5023262;28;20083;-74
2023/08/15 06:55:08;;;;;;;13.77;7.13;;;;;;;18.51;nan;101424.50;5023056;28;20144;-74
2023/08/15 06:57:34;;;;;;;14.82;7.32;;;;;;;18.54;nan;101427.91;5022837;28;20025;-74
2023/08/15 07:00:01;;;;;;;15.57;7.38;;;;;;;18.58;nan;101429.47;5022068;28;20100;-76
2023/08/15 07:02:27;;;;;;;17.33;6.78;;;;;;;18.64;nan;101418.59;5011355;28;20021;-74
2023/08/15 07:04:53;;;;;;;15.32;6.85;;;;;;;18.75;nan;101419.91;5015573;28;20030;-74
2023/08/15 07:07:18;;;;;;;13.43;6.40;;;;;;;18.74;nan;101404.97;5019495;28;20155;-75
2023/08/15 07:09:45;;;;;;;14.20;6.57;;;;;;;18.99;nan;101423.13;5021812;28;20034;-73
2023/08/15 07:12:10;;;;;;;13.27;6.05;;;;;;;19.07;nan;101428.91;5021746;28;20037;-73
2023/08/15 07:14:35;;;;;;;15.35;6.70;;;;;;;19.15;nan;101429.34;5023175;28;20022;-74
2023/08/15 07:17:01;;;;;;;12.77;5.75;;;;;;;19.18;nan;101423.91;5011691;28;20030;-74
2023/08/15 07:19:27;;;;;;;12.48;5.85;;;;;;;19.24;nan;101439.47;5022092;28;20036;-74
2023/08/15 07:21:52;;;;;;;13.73;6.15;;;;;;;19.37;nan;101429.97;5022360;28;20026;-74
2023/08/15 07:24:18;;;;;;;12.68;5.03;;;;;;;19.45;nan;101432.22;5015121;28;20384;-74
2023/08/15 07:26:44;;;;;;;14.00;5.43;;;;;;;19.59;nan;101439.47;5012966;28;20107;-75
2023/08/15 07:29:09;;;;;;;11.93;5.00;;;;;;;19.74;nan;101443.97;5016192;28;20221;-74
2023/08/15 07:31:34;;;;;;;14.40;5.57;;;;;;;19.79;nan;101441.09;5025587;28;20100;-73
2023/08/15 07:33:59;;;;;;;10.43;4.30;;;;;;;19.83;nan;101456.72;5019464;28;20038;-74
2023/08/15 07:36:25;;;;;;;11.68;5.05;;;;;;;19.87;nan;101447.69;5015825;28;20092;-73
2023/08/15 07:38:50;;;;;;;12.85;4.80;;;;;;;19.92;nan;101462.50;5008463;28;20113;-74
2023/08/15 07:41:15;;;;;;;13.63;6.15;;;;;;;19.90;nan;101459.06;5021942;28;20465;-74
2023/08/15 07:43:41;;;;;;;14.02;6.07;;;;;;;19.86;nan;101458.38;5019719;28;20060;-74
2023/08/15 07:46:06;;;;;;;11.25;5.40;;;;;;;19.88;nan;101460.00;5017361;28;20033;-74
2023/08/15 07:48:31;;;;;;;13.40;5.10;;;;;;;19.77;nan;101449.09;5024659;28;20026;-74
2023/08/15 07:50:57;;;;;;;10.85;4.90;;;;;;;19.82;nan;101456.81;5015521;28;20024;-74
2023/08/15 07:53:23;;;;;;;10.80;5.07;;;;;;;19.81;nan;101455.94;5025202;28;20063;-74
2023/08/15 07:55:49;;;;;;;10.90;5.28;;;;;;;19.82;nan;101460.31;5026317;28;20033;-73
2023/08/15 07:58:15;;;;;;;12.93;5.07;;;;;;;19.93;nan;101464.19;5023327;28;20568;-73
2023/08/15 08:00:42;;;;;;;10.65;4.75;;;;;;;20.05;nan;101459.09;5017145;28;20038;-73
2023/08/15 08:03:08;;;;;;;10.43;4.63;;;;;;;20.20;nan;101462.69;5015704;28;20038;-73
2023/08/15 08:05:34;;;;;;;7.97;4.45;;;;;;;20.21;nan;101464.44;5014543;28;20092;-74
2023/08/15 08:07:59;;;;;;;10.35;4.57;;;;;;;20.40;nan;101471.34;5025734;28;20029;-74
2023/08/15 08:10:24;;;;;;;14.65;4.60;;;;;;;20.33;nan;101466.41;5027006;28;20033;-74
2023/08/15 08:12:50;;;;;;;11.10;5.75;;;;;;;20.38;nan;101467.97;5014298;28;20362;-74
2023/08/15 08:15:15;;;;;;;11.18;4.95;;;;;;;20.41;nan;101468.66;5012610;28;20030;-74
2023/08/15 08:17:41;;;;;;;12.68;5.15;;;;;;;20.47;nan;101467.44;5020029;28;20465;-74
2023/08/15 08:20:12;;;;;;;10.15;4.15;;;;;;;20.47;nan;101464.78;5023388;28;20128;-74
2023/08/15 08:22:39;;;;;;;9.80;4.43;;;;;;;20.58;nan;101470.38;5019171;28;20114;-74
2023/08/15 08:25:13;;;;;;;9.20;4.45;;;;;;;20.76;nan;101471.16;5017975;28;20461;-74
2023/08/15 08:27:38;;;;;;;11.20;4.70;;;;;;;20.69;nan;101467.97;5006465;28;20133;-75
2023/08/15 08:30:06;;;;;;;11.63;4.80;;;;;;;20.65;nan;101474.41;5013846;28;20049;-74
2023/08/15 08:32:31;;;;;;;12.50;4.45;;;;;;;20.63;nan;101470.97;5023162;28;20096;-74
2023/08/15 08:34:57;;;;;;;10.25;4.72;;;;;;;20.62;nan;101471.06;5019093;28;20125;-73
2023/08/15 08:37:22;;;;;;;12.18;4.72;;;;;;;20.56;nan;101472.25;5014372;28;20046;-74
2023/08/15 08:39:47;;;;;;;9.80;4.53;;;;;;;20.43;nan;101456.16;5012599;28;20022;-74
2023/08/15 08:42:13;;;;;;;11.57;4.95;;;;;;;20.50;nan;101469.91;5013889;28;20022;-75
2023/08/15 08:44:39;;;;;;;10.73;5.18;;;;;;;20.52;nan;101483.97;5015688;28;20109;-75
2023/08/15 08:47:05;;;;;;;13.00;4.32;;;;;;;20.40;nan;101474.84;5019709;28;20026;-73
2023/08/15 08:49:30;;;;;;;7.38;4.07;;;;;;;20.49;nan;101474.34;5014073;28;20048;-72
2023/08/15 08:51:56;;;;;;;8.90;3.85;;;;;;;20.55;nan;101482.00;5018154;28;20022;-72
2023/08/15 08:54:22;;;;;;;10.07;3.92;;;;;;;20.75;nan;101469.44;5013657;28;20072;-72
2023/08/15 08:56:49;;;;;;;9.35;3.63;;;;;;;20.98;nan;101470.78;5010145;28;20465;-72
2023/08/15 08:59:17;;;;;;;11.30;4.30;;;;;;;21.20;nan;101458.00;5008783;28;20201;-72
2023/08/15 09:01:44;;;;;;;11.88;3.45;;;;;;;21.72;nan;101488.59;5021487;28;20108;-74
2023/08/15 09:04:10;;;;;;;12.52;4.78;;;;;;;21.95;nan;101476.59;5015574;28;20100;-74
2023/08/15 09:06:35;;;;;;;6.35;3.35;;;;;;;22.06;nan;101482.06;5017897;28;20549;-74
2023/08/15 09:09:00;;;;;;;9.45;3.92;;;;;;;21.95;nan;101484.56;5018811;28;20018;-74
2023/08/15 09:11:34;;;;;;;8.63;3.67;;;;;;;21.83;nan;101485.28;5017850;28;20026;-74
2023/08/15 09:14:04;;;;;;;7.90;3.03;;;;;;;21.72;nan;101478.81;5013757;28;20132;-74
2023/08/15 09:16:33;;;;;;;11.23;4.97;;;;;;;21.81;nan;101489.81;5015116;28;20029;-74
2023/08/15 09:19:04;;;;;;;5.47;3.03;;;;;;;21.88;nan;101486.72;5013610;28;20030;-74
2023/08/15 09:21:30;;;;;;;12.82;3.90;;;;;;;22.15;nan;101488.63;5028256;28;20060;-74
2023/08/15 09:24:00;;;;;;;10.93;4.03;;;;;;;22.42;nan;101491.38;5017634;28;20057;-74
2023/08/15 09:26:26;;;;;;;8.82;3.78;;;;;;;22.68;nan;101493.25;5008994;28;20108;-74
2023/08/15 09:28:51;;;;;;;11.50;4.25;;;;;;;22.90;nan;101491.88;5011544;28;20105;-75
2023/08/15 09:31:18;;;;;;;6.85;3.60;;;;;;;23.22;nan;101497.78;5024007;28;20038;-75
2023/08/15 09:33:43;;;;;;;9.68;3.28;;;;;;;23.48;nan;101497.81;5009445;28;20054;-75
2023/08/15 09:36:09;;;;;;;7.97;3.20;;;;;;;23.77;nan;101499.41;5006943;28;20037;-75
2023/08/15 09:38:39;;;;;;;6.97;3.45;;;;;;;23.88;nan;101495.16;5011271;28;20026;-75
2023/08/15 09:41:06;;;;;;;9.27;3.35;;;;;;;23.94;nan;101495.56;5020875;28;20034;-75
2023/08/15 09:43:32;;;;;;;8.93;3.03;;;;;;;23.77;nan;101499.41;5021680;28;20081;-75
2023/08/15 09:45:58;;;;;;;8.35;2.80;;;;;;;23.68;nan;101499.16;5026165;28;20033;-75
2023/08/15 09:48:25;;;;;;;10.57;3.70;;;;;;;23.55;nan;101499.97;5015441;28;20030;-75
2023/08/15 09:50:53;;;;;;;11.07;3.65;;;;;;;23.54;nan;101502.72;5027156;28;20078;-73
2023/08/15 09:53:20;;;;;;;8.80;3.20;;;;;;;23.53;nan;101501.88;5022179;28;20136;-73
2023/08/15 09:55:49;;;;;;;8.65;3.47;;;;;;;23.53;nan;101504.53;5021696;28;20104;-73
2023/08/15 09:58:16;;;;;;;7.95;3.15;;;;;;;23.47;nan;101520.06;5024018;28;20389;-73
2023/08/15 10:00:43;;;;;;;7.57;3.38;;;;;;;23.54;nan;101513.38;5021665;28;20432;-73
2023/08/15 10:03:18;;;;;;;8.73;3.13;;;;;;;23.39;nan;101525.91;5013889;28;20026;-72
2023/08/15 10:05:48;;;;;;;10.95;3.38;;;;;;;23.26;nan;101525.88;5019592;28;20489;-73
2023/08/15 10:08:14;;;;;;;9.20;3.15;;;;;;;23.38;nan;101532.19;5022780;28;20037;-73
2023/08/15 10:10:40;;;;;;;9.25;3.40;;;;;;;23.57;nan;101529.13;5028138;28;20030;-73
2023/08/15 10:13:08;;;;;;;7.95;3.15;;;;;;;23.53;nan;101535.63;5016574;28;20504;-73
2023/08/15 10:15:34;;;;;;;12.68;3.40;;;;;;;23.40;nan;101532.06;5025328;28;20038;-73
2023/08/15 10:18:00;;;;;;;7.70;3.40;;;;;;;23.22;nan;101532.34;5022165;28;20056;-73
2023/08/15 10:20:26;;;;;;;7.32;2.78;;;;;;;22.98;nan;101534.78;5023240;28;20029;-73
2023/08/15 10:22:57;;;;;;;8.98;3.30;;;;;;;22.57;nan;101534.75;5023532;28;20032;-73
2023/08/15 10:25:31;;;;;;;7.18;2.75;;;;;;;22.44;nan;101535.50;5021358;28;20029;-73
2023/08/15 10:27:57;;;;;;;15.57;4.75;;;;;;;22.42;nan;101547.19;5015683;28;20058;-73
2023/08/15 10:30:30;;;;;;;10.48;2.90;;;;;;;22.67;nan;101518.13;5021953;28;20069;-73
2023/08/15 10:32:59;;;;;;;9.43;2.85;;;;;;;23.18;nan;101529.97;5012299;28;20367;-75
2023/08/15 10:35:25;;;;;;;7.15;2.90;;;;;;;23.79;nan;101544.53;5009727;28;20478;-73
2023/08/15 10:37:51;;;;;;;8.18;3.20;;;;;;;24.20;nan;101538.19;5019566;28;20058;-74
2023/08/15 10:40:17;;;;;;;5.05;2.28;;;;;;;24.29;nan;101527.72;5011223;28;20061;-73
2023/08/15 10:42:57;;;;;;;5.80;2.97;;;;;;;24.51;nan;101552.88;5020161;28;20361;-73
2023/08/15 10:45:23;;;;;;;7.30;2.85;;;;;;;24.56;nan;101549.88;5010682;28;20030;-73
2023/08/15 10:47:49;;;;;;;8.70;3.00;;;;;;;24.78;nan;101547.38;5017812;28;20028;-73
2023/08/15 10:50:15;;;;;;;9.77;3.03;;;;;;;24.84;nan;101541.59;5022805;28;20025;-74
2023/08/15 10:52:40;;;;;;;6.72;2.40;;;;;;;24.78;nan;101547.38;5007354;28;20057;-73
2023/08/15 10:55:06;;;;;;;7.30;2.63;;;;;;;24.62;nan;101541.44;5020772;28;20123;-73
2023/08/15 10:57:33;;;;;;;7.90;2.75;;;;;;;24.68;nan;101535.69;5011161;28;20462;-73
2023/08/15 10:59:58;;;;;;;8.35;3.33;;;;;;;25.07;nan;101541.75;5018326;28;20028;-74
2023/08/15 11:02:23;;;;;;;8.48;3.00;;;;;;;25.38;nan;101537.69;5014317;28;20108;-74
2023/08/15 11:07:55;;;;;;;10.60;2.83;;;;;;;25.58;nan;101528.19;5009751;28;20045;-74
2023/08/15 11:10:22;;;;;;;7.43;2.85;;;;;;;25.79;nan;101537.22;5014063;28;20037;-74
2023/08/15 11:12:48;;;;;;;6.55;2.67;;;;;;;25.69;nan;101509.50;5021558;28;20041;-74
2023/08/15 11:15:15;;;;;;;6.28;2.88;;;;;;;25.89;nan;101537.38;5022692;28;20036;-74
2023/08/15 11:17:45;;;;;;;9.27;2.80;;;;;;;26.36;nan;101517.63;5022428;28;20025;-74
2023/08/15 11:20:11;;;;;;;9.45;3.20;;;;;;;26.76;nan;101530.50;5019540;28;20033;-77
2023/08/15 11:22:36;;;;;;;5.90;2.90;;;;;;;26.90;nan;101526.69;5017250;28;20037;-74
2023/08/15 11:25:02;;;;;;;7.38;2.30;;;;;;;27.22;nan;101517.88;5015492;28;20026;-78
2023/08/15 11:27:28;;;;;;;8.20;2.25;;;;;;;27.45;nan;101537.38;5018171;28;20026;-73
2023/08/15 11:29:59;;;;;;;7.78;2.80;;;;;;;27.10;nan;101538.44;5025869;28;20453;-75
2023/08/15 11:32:25;;;;;;;6.60;2.95;;;;;;;26.52;nan;101543.16;5024022;28;20025;-74
2023/08/15 11:34:50;;;;;;;5.00;2.45;;;;;;;26.13;nan;101545.34;5024801;28;20388;-74